Time;durP1;ratioP1;P1;durP2;ratioP2;P2;SDS_P1;SDS_P2;PMS_P1;PMS_P2;Temp;Humidity;BMP_temperature;BMP_pressure;BME280_temperature;BME280_humidity;BME280_pressure;Samples;Min_cycle;Max_cycle;Signal;HPM_P1;HPM_P2
2022/06/24 00:01:43;;;;;;;;;;;;;;;25.80;100.00;97350.78;5013215;28;19937;-81
2022/06/24 00:04:09;;;;;;;;;;;;;;;25.75;100.00;97360.88;5033178;28;20002;-82
2022/06/24 00:06:44;;;;;;;;;;;;;;;25.82;100.00;97351.16;5036138;28;20428;-81
2022/06/24 00:09:13;;;;;;;;;;;;;;;25.88;100.00;97352.41;5033538;28;19925;-81
2022/06/24 00:11:40;;;;;;;;;;;;;;;25.84;100.00;97357.88;5040148;28;20494;-82
2022/06/24 00:14:09;;;;;;;;;;;;;;;25.71;100.00;97364.75;5037630;28;20011;-82
2022/06/24 00:16:54;;;;;;;;;;;;;;;25.74;100.00;97358.53;5019894;28;19990;-81
2022/06/24 00:19:21;;;;;;;;;;;;;;;25.83;100.00;97360.97;5028102;28;19955;-81
2022/06/24 00:21:57;;;;;;;;;;;;;;;25.82;100.00;97365.63;5035996;28;19932;-81
2022/06/24 00:24:23;;;;;;;;;;;;;;;25.80;100.00;97386.34;5038620;28;20019;-81
2022/06/24 00:26:50;;;;;;;;;;;;;;;25.72;100.00;97377.25;5026244;28;19925;-81
2022/06/24 00:29:18;;;;;;;;;;;;;;;25.58;100.00;97377.91;5030413;28;20042;-81
2022/06/24 00:31:59;;;;;;;;;;;;;;;25.64;100.00;97359.19;5033706;28;19928;-80
2022/06/24 00:34:25;;;;;;;;;;;;;;;25.60;100.00;97353.69;5035576;28;19929;-80
2022/06/24 00:36:52;;;;;;;;;;;;;;;25.61;100.00;97354.47;5041812;28;19924;-81
2022/06/24 00:39:18;;;;;;;;;;;;;;;25.78;100.00;97342.94;5028026;28;20054;-80
2022/06/24 00:41:49;;;;;;;;;;;;;;;25.65;100.00;97327.97;5026703;28;19929;-80
2022/06/24 00:44:18;;;;;;;;;;;;;;;25.81;100.00;97330.47;5036117;28;19929;-81
2022/06/24 00:46:47;;;;;;;;;;;;;;;25.61;100.00;97317.00;5029430;28;19971;-81
2022/06/24 00:49:15;;;;;;;;;;;;;;;25.64;100.00;97324.44;5022620;28;20024;-81
2022/06/24 00:51:42;;;;;;;;;;;;;;;25.55;100.00;97334.91;5034109;28;19971;-81
2022/06/24 00:54:09;;;;;;;;;;;;;;;25.54;100.00;97324.31;5041804;28;19975;-80
2022/06/24 00:56:36;;;;;;;;;;;;;;;25.71;100.00;97327.25;5043076;28;20023;-80
2022/06/24 00:59:04;;;;;;;;;;;;;;;25.81;100.00;97325.75;5019153;28;19960;-82
2022/06/24 01:01:32;;;;;;;;;;;;;;;25.60;100.00;97320.88;5039062;28;19925;-80
2022/06/24 01:03:59;;;;;;;;;;;;;;;25.62;100.00;97317.78;5031203;28;20024;-81
2022/06/24 01:06:26;;;;;;;;;;;;;;;25.79;100.00;97319.88;5033338;28;20494;-80
2022/06/24 01:08:52;;;;;;;;;;;;;;;25.75;100.00;97322.59;5035298;28;19935;-82
2022/06/24 01:11:23;;;;;;;;;;;;;;;25.73;100.00;97324.13;5031704;28;19932;-81
2022/06/24 01:13:49;;;;;;;;;;;;;;;25.58;100.00;97312.28;5020156;28;19936;-81
2022/06/24 01:16:16;;;;;;;;;;;;;;;25.43;100.00;97316.00;5019455;28;20418;-82
2022/06/24 01:18:43;;;;;;;;;;;;;;;25.56;100.00;97311.84;5037595;28;20034;-81
2022/06/24 01:21:29;;;;;;;;;;;;;;;25.39;100.00;97315.16;5034293;28;19924;-81
2022/06/24 01:24:02;;;;;;;;;;;;;;;24.97;100.00;97317.38;5022191;28;20024;-81
2022/06/24 01:26:28;;;;;;;;;;;;;;;25.06;100.00;97304.22;5030382;28;19929;-81
2022/06/24 01:28:55;;;;;;;;;;;;;;;25.27;100.00;97315.41;5027690;28;19994;-81
2022/06/24 01:31:21;;;;;;;;;;;;;;;25.09;100.00;97314.41;5022581;28;19951;-80
2022/06/24 01:33:48;;;;;;;;;;;;;;;24.98;100.00;97311.53;5026096;28;19971;-80
2022/06/24 01:36:15;;;;;;;;;;;;;;;24.86;100.00;97319.97;5038228;28;20036;-81
2022/06/24 01:38:42;;;;;;;;;;;;;;;24.50;100.00;97310.47;5037416;28;19968;-80
2022/06/24 01:41:08;;;;;;;;;;;;;;;24.42;100.00;97310.72;5077012;22;19964;-61
2022/06/24 01:43:35;;;;;;;;;;;;;;;24.34;100.00;97311.78;5104765;22;20000;-71
2022/06/24 01:46:01;;;;;;;;;;;;;;;24.65;100.00;97306.00;5057695;28;19929;-71
2022/06/24 01:48:28;;;;;;;;;;;;;;;25.03;100.00;97313.16;5052744;28;19936;-71
2022/06/24 01:50:55;;;;;;;;;;;;;;;25.18;100.00;97312.19;5060450;28;19925;-71
2022/06/24 01:53:23;;;;;;;;;;;;;;;25.01;100.00;97297.13;5057186;28;19928;-71
2022/06/24 01:55:49;;;;;;;;;;;;;;;24.93;100.00;97309.13;5057457;28;19932;-71
2022/06/24 01:58:15;;;;;;;;;;;;;;;24.77;100.00;97304.97;5054463;28;19925;-71
2022/06/24 02:00:42;;;;;;;;;;;;;;;24.51;100.00;97300.34;5053968;28;19925;-71
2022/06/24 02:03:08;;;;;;;;;;;;;;;24.49;100.00;97294.44;5056190;28;19933;-73
2022/06/24 02:05:35;;;;;;;;;;;;;;;24.46;100.00;97298.72;5039364;28;19925;-73
2022/06/24 02:08:01;;;;;;;;;;;;;;;24.91;100.00;97295.06;5058567;28;19925;-71
2022/06/24 02:15:58;;;;;;;;;;;;;;;25.13;100.00;97288.69;5059534;28;19948;-71
2022/06/24 02:18:25;;;;;;;;;;;;;;;25.15;100.00;97283.66;5056897;28;19932;-71
2022/06/24 02:20:52;;;;;;;;;;;;;;;25.11;100.00;97271.09;5063200;28;19924;-72
2022/06/24 02:23:19;;;;;;;;;;;;;;;24.73;100.00;97275.69;5042270;28;19937;-71
2022/06/24 02:25:47;;;;;;;;;;;;;;;24.10;100.00;97278.25;5060187;28;19936;-71
2022/06/24 02:28:15;;;;;;;;;;;;;;;23.32;100.00;97276.09;5039437;28;20560;-71
2022/06/24 02:30:42;;;;;;;;;;;;;;;22.89;100.00;97271.75;5057169;28;19928;-71
2022/06/24 02:33:09;;;;;;;;;;;;;;;23.89;100.00;97277.91;5059008;28;19932;-71
2022/06/24 02:35:36;;;;;;;;;;;;;;;24.28;100.00;97277.75;5042863;28;19964;-71
2022/06/24 02:38:03;;;;;;;;;;;;;;;24.52;100.00;97283.59;5059074;28;19955;-71
2022/06/24 02:40:47;;;;;;;;;;;;;;;24.68;100.00;97286.16;5055806;28;19925;-71
2022/06/24 02:43:17;;;;;;;;;;;;;;;24.84;100.00;97283.25;5059401;28;19925;-71
2022/06/24 02:45:43;;;;;;;;;;;;;;;24.94;100.00;97288.06;5043220;28;19996;-71
2022/06/24 02:48:10;;;;;;;;;;;;;;;24.91;100.00;97283.34;5058430;28;19989;-71
2022/06/24 02:50:40;;;;;;;;;;;;;;;25.02;100.00;97274.13;5061107;28;19955;-71
2022/06/24 02:53:06;;;;;;;;;;;;;;;24.80;100.00;97282.38;5059589;28;19925;-71
2022/06/24 02:55:33;;;;;;;;;;;;;;;24.47;100.00;97272.19;5059689;28;19929;-71
2022/06/24 02:57:59;;;;;;;;;;;;;;;23.98;100.00;97283.13;5041397;28;19925;-71
2022/06/24 03:00:27;;;;;;;;;;;;;;;23.45;100.00;97280.28;5054996;28;20665;-72
2022/06/24 03:02:53;;;;;;;;;;;;;;;23.44;100.00;97277.88;5056299;28;19947;-71
2022/06/24 03:05:20;;;;;;;;;;;;;;;24.18;100.00;97276.44;5047777;28;19989;-71
2022/06/24 03:07:46;;;;;;;;;;;;;;;24.31;100.00;97291.47;5048024;28;19925;-71
2022/06/24 03:10:13;;;;;;;;;;;;;;;24.42;100.00;97286.94;5047707;28;19925;-71
2022/06/24 03:12:39;;;;;;;;;;;;;;;24.58;100.00;97281.31;5030055;28;19925;-71
2022/06/24 03:15:06;;;;;;;;;;;;;;;24.59;100.00;97294.63;5047590;28;19932;-71
2022/06/24 03:17:34;;;;;;;;;;;;;;;24.71;100.00;97290.88;5046493;28;19960;-71
2022/06/24 03:20:00;;;;;;;;;;;;;;;24.76;100.00;97304.19;5046729;28;19925;-71
2022/06/24 03:22:27;;;;;;;;;;;;;;;24.68;100.00;97305.25;5063012;28;19921;-71
2022/06/24 03:24:53;;;;;;;;;;;;;;;24.63;100.00;97308.31;5055855;28;19925;-71
2022/06/24 03:27:20;;;;;;;;;;;;;;;24.81;100.00;97309.38;5047597;28;19960;-71
2022/06/24 03:29:47;;;;;;;;;;;;;;;24.93;100.00;97297.41;5047536;28;20610;-71
2022/06/24 03:32:13;;;;;;;;;;;;;;;25.01;100.00;97302.59;5029560;28;19932;-71
2022/06/24 03:34:41;;;;;;;;;;;;;;;25.10;100.00;97307.78;5047689;28;19925;-72
2022/06/24 03:37:07;;;;;;;;;;;;;;;25.12;100.00;97303.53;5047249;28;19986;-72
2022/06/24 03:39:35;;;;;;;;;;;;;;;25.05;100.00;97306.16;5038574;28;19925;-72
2022/06/24 03:42:01;;;;;;;;;;;;;;;25.07;100.00;97309.31;5054339;28;19945;-72
2022/06/24 03:44:28;;;;;;;;;;;;;;;24.94;100.00;97309.94;5055520;28;19925;-72
2022/06/24 03:46:54;;;;;;;;;;;;;;;25.02;100.00;97301.44;5055329;28;19925;-72
2022/06/24 03:49:21;;;;;;;;;;;;;;;24.97;100.00;97287.34;5055012;28;19948;-72
2022/06/24 03:51:48;;;;;;;;;;;;;;;24.26;100.00;97297.25;5062121;28;19925;-72
2022/06/24 03:54:15;;;;;;;;;;;;;;;24.15;100.00;97296.28;5055326;28;19936;-72
2022/06/24 03:56:41;;;;;;;;;;;;;;;24.11;100.00;97292.69;5054851;28;20698;-72
2022/06/24 03:59:08;;;;;;;;;;;;;;;24.17;100.00;97296.69;5056590;28;19921;-71
2022/06/24 04:01:34;;;;;;;;;;;;;;;24.37;100.00;97289.19;5058553;28;19932;-71
2022/06/24 04:04:01;;;;;;;;;;;;;;;24.62;100.00;97288.41;5058518;28;19947;-71
2022/06/24 04:06:28;;;;;;;;;;;;;;;24.51;100.00;97284.72;5056174;28;19925;-72
2022/06/24 04:08:56;;;;;;;;;;;;;;;24.59;100.00;97300.06;5038436;28;19925;-72
2022/06/24 04:11:22;;;;;;;;;;;;;;;24.71;100.00;97299.06;5047118;28;19935;-71
2022/06/24 04:13:49;;;;;;;;;;;;;;;24.77;100.00;97313.97;5047238;28;19932;-72
2022/06/24 04:16:15;;;;;;;;;;;;;;;24.73;100.00;97317.81;5046996;28;19955;-71
2022/06/24 04:18:42;;;;;;;;;;;;;;;24.70;100.00;97322.03;5046957;28;19925;-71
2022/06/24 04:21:10;;;;;;;;;;;;;;;24.83;100.00;97323.44;5056310;28;19925;-71
2022/06/24 04:23:37;;;;;;;;;;;;;;;24.86;100.00;97319.97;5059641;28;19999;-71
2022/06/24 04:26:05;;;;;;;;;;;;;;;24.52;100.00;97329.19;5059510;28;19924;-71
2022/06/24 04:28:31;;;;;;;;;;;;;;;24.76;100.00;97320.56;5061935;28;19943;-72
2022/06/24 04:30:57;;;;;;;;;;;;;;;24.80;100.00;97324.16;5054844;28;19921;-72
2022/06/24 04:33:24;;;;;;;;;;;;;;;24.63;100.00;97333.66;5059122;28;19925;-70
2022/06/24 04:35:50;;;;;;;;;;;;;;;24.25;100.00;97316.69;5059350;28;19982;-71
2022/06/24 04:38:17;;;;;;;;;;;;;;;24.09;100.00;97319.53;5055502;28;19929;-72
2022/06/24 04:40:43;;;;;;;;;;;;;;;24.25;100.00;97317.50;5055899;28;19949;-71
2022/06/24 04:43:12;;;;;;;;;;;;;;;23.61;100.00;97316.38;5057190;28;19996;-71
2022/06/24 04:45:38;;;;;;;;;;;;;;;23.02;100.00;97324.94;5058167;28;19965;-71
2022/06/24 04:48:05;;;;;;;;;;;;;;;22.51;100.00;97318.72;5056274;28;19925;-71
2022/06/24 04:50:32;;;;;;;;;;;;;;;22.33;100.00;97311.31;5058054;28;19979;-71
2022/06/24 04:52:58;;;;;;;;;;;;;;;22.75;100.00;97309.56;5057422;28;19925;-70
2022/06/24 04:55:25;;;;;;;;;;;;;;;23.41;100.00;97314.84;5057526;28;20075;-71
2022/06/24 04:57:51;;;;;;;;;;;;;;;23.85;100.00;97311.72;5057613;28;19925;-71
2022/06/24 05:00:19;;;;;;;;;;;;;;;23.83;100.00;97312.06;5053978;28;19925;-71
2022/06/24 05:02:46;;;;;;;;;;;;;;;23.14;100.00;97337.63;5053745;28;19925;-72
2022/06/24 05:05:12;;;;;;;;;;;;;;;22.19;100.00;97324.59;5055255;28;19990;-70
2022/06/24 05:07:40;;;;;;;;;;;;;;;22.52;100.00;97338.56;5057572;28;20305;-70
2022/06/24 05:10:07;;;;;;;;;;;;;;;23.12;100.00;97350.78;5055742;28;19925;-70
2022/06/24 05:12:33;;;;;;;;;;;;;;;23.64;100.00;97356.53;5036092;28;19956;-71
2022/06/24 05:15:00;;;;;;;;;;;;;;;23.42;100.00;97365.47;5054676;28;19925;-72
2022/06/24 05:17:28;;;;;;;;;;;;;;;23.31;100.00;97371.81;5057232;28;19935;-71
2022/06/24 05:19:54;;;;;;;;;;;;;;;23.29;100.00;97364.00;5039182;28;20042;-71
2022/06/24 05:22:21;;;;;;;;;;;;;;;23.63;100.00;97346.78;5060613;28;20878;-71
2022/06/24 05:24:48;;;;;;;;;;;;;;;23.95;100.00;97350.06;5053453;28;19925;-71
2022/06/24 05:27:14;;;;;;;;;;;;;;;24.04;100.00;97341.66;5056477;28;19921;-72
2022/06/24 05:29:41;;;;;;;;;;;;;;;24.18;100.00;97353.63;5039321;28;19936;-70
2022/06/24 05:32:07;;;;;;;;;;;;;;;24.31;100.00;97354.22;5055255;28;19925;-70
2022/06/24 05:34:35;;;;;;;;;;;;;;;24.21;100.00;97349.38;5053371;28;20080;-71
2022/06/24 05:37:02;;;;;;;;;;;;;;;24.02;100.00;97360.31;5054253;28;19925;-70
2022/06/24 05:39:28;;;;;;;;;;;;;;;23.63;100.00;97376.78;5056666;28;19929;-71
2022/06/24 05:41:55;;;;;;;;;;;;;;;23.58;100.00;97379.78;5057341;28;19925;-70
2022/06/24 05:44:21;;;;;;;;;;;;;;;23.43;100.00;97385.31;5057152;28;19922;-71
2022/06/24 05:46:48;;;;;;;;;;;;;;;23.53;100.00;97377.34;5055850;28;19929;-71
2022/06/24 05:49:14;;;;;;;;;;;;;;;23.73;100.00;97369.16;5059782;28;20047;-70
2022/06/24 05:51:42;;;;;;;;;;;;;;;23.92;100.00;97377.31;5067907;28;19984;-70
2022/06/24 05:56:52;;;;;;;;;;;;;;;24.05;100.00;97375.97;5057324;28;20323;-71
2022/06/24 05:59:19;;;;;;;;;;;;;;;24.04;100.00;97379.84;5060307;28;19932;-71
2022/06/24 06:01:45;;;;;;;;;;;;;;;24.01;100.00;97380.59;5060752;28;19925;-71
2022/06/24 06:04:12;;;;;;;;;;;;;;;23.96;100.00;97380.88;5058253;28;19925;-71
2022/06/24 06:06:38;;;;;;;;;;;;;;;23.82;100.00;97370.50;5056868;28;19943;-72
2022/06/24 06:09:06;;;;;;;;;;;;;;;23.85;100.00;97358.88;5058368;28;20358;-72
2022/06/24 06:11:32;;;;;;;;;;;;;;;23.90;100.00;97365.97;5060547;28;19925;-70
2022/06/24 06:13:59;;;;;;;;;;;;;;;23.94;100.00;97367.59;5059767;28;19931;-71
2022/06/24 06:16:26;;;;;;;;;;;;;;;23.99;100.00;97371.97;5057050;28;19925;-71
2022/06/24 06:18:53;;;;;;;;;;;;;;;23.82;100.00;97365.06;5056732;28;20396;-71
2022/06/24 06:21:19;;;;;;;;;;;;;;;23.86;100.00;97374.06;5062697;28;19925;-71
2022/06/24 06:23:46;;;;;;;;;;;;;;;23.95;100.00;97380.06;5055836;28;19963;-71
2022/06/24 06:26:14;;;;;;;;;;;;;;;23.86;100.00;97379.53;5057891;28;19925;-72
2022/06/24 06:28:41;;;;;;;;;;;;;;;24.02;100.00;97368.50;5038874;28;19936;-72
2022/06/24 06:31:10;;;;;;;;;;;;;;;23.80;100.00;97377.47;5056756;28;21389;-71
2022/06/24 06:33:36;;;;;;;;;;;;;;;23.54;100.00;97383.59;5042305;28;19924;-71
2022/06/24 06:36:04;;;;;;;;;;;;;;;23.40;100.00;97373.19;5059184;28;19924;-72
2022/06/24 06:38:30;;;;;;;;;;;;;;;23.45;100.00;97372.13;5056846;28;19932;-72
2022/06/24 06:40:57;;;;;;;;;;;;;;;23.46;100.00;97376.41;5057263;28;20440;-71
2022/06/24 06:43:24;;;;;;;;;;;;;;;23.39;100.00;97374.38;5060418;28;19971;-70
2022/06/24 06:45:52;;;;;;;;;;;;;;;23.77;100.00;97368.06;5060534;28;19983;-70
2022/06/24 06:48:19;;;;;;;;;;;;;;;24.01;100.00;97362.28;5056709;28;19976;-71
2022/06/24 06:50:46;;;;;;;;;;;;;;;24.22;100.00;97364.59;5061402;28;19951;-71
2022/06/24 06:53:12;;;;;;;;;;;;;;;24.07;100.00;97360.03;5033543;28;20279;-71
2022/06/24 06:55:38;;;;;;;;;;;;;;;23.71;100.00;97361.31;5059575;28;19936;-71
2022/06/24 06:58:05;;;;;;;;;;;;;;;23.94;100.00;97358.63;5058401;28;19924;-70
2022/06/24 07:00:33;;;;;;;;;;;;;;;24.04;100.00;97358.03;5054994;28;19944;-71
2022/06/24 07:02:59;;;;;;;;;;;;;;;23.82;100.00;97356.09;5056809;28;19971;-71
2022/06/24 07:05:25;;;;;;;;;;;;;;;23.87;100.00;97363.94;5059804;28;19925;-71
2022/06/24 07:07:52;;;;;;;;;;;;;;;24.01;100.00;97359.56;5059762;28;19939;-71
2022/06/24 07:10:18;;;;;;;;;;;;;;;23.78;100.00;97347.84;5038558;28;20525;-71
2022/06/24 07:12:45;;;;;;;;;;;;;;;24.10;100.00;97343.72;5056047;28;19929;-71
2022/06/24 07:15:14;;;;;;;;;;;;;;;23.75;100.00;97336.84;5057896;28;19935;-71
2022/06/24 07:17:42;;;;;;;;;;;;;;;24.00;100.00;97346.28;5059078;28;19920;-71
2022/06/24 07:20:09;;;;;;;;;;;;;;;24.17;100.00;97335.69;5057608;28;19932;-72
2022/06/24 07:22:35;;;;;;;;;;;;;;;24.09;100.00;97330.44;5061589;28;19925;-72
2022/06/24 07:25:01;;;;;;;;;;;;;;;24.05;100.00;97340.50;5056141;28;19987;-70
2022/06/24 07:27:28;;;;;;;;;;;;;;;23.94;100.00;97345.00;5059129;28;19932;-70
2022/06/24 07:29:54;;;;;;;;;;;;;;;24.02;100.00;97339.28;5058823;28;19928;-71
2022/06/24 07:32:21;;;;;;;;;;;;;;;24.11;100.00;97333.63;5047000;28;19936;-71
2022/06/24 07:34:49;;;;;;;;;;;;;;;24.10;100.00;97323.84;5029138;28;20674;-71
2022/06/24 07:37:15;;;;;;;;;;;;;;;24.22;100.00;97333.81;5029020;28;19929;-71
2022/06/24 07:39:41;;;;;;;;;;;;;;;23.97;100.00;97342.34;5046753;28;19964;-72
2022/06/24 07:42:08;;;;;;;;;;;;;;;23.81;100.00;97341.66;5046881;28;19925;-73
2022/06/24 07:44:35;;;;;;;;;;;;;;;24.16;100.00;97319.69;5046604;28;19925;-71
2022/06/24 07:47:01;;;;;;;;;;;;;;;24.04;100.00;97311.66;5045108;28;19925;-71
2022/06/24 07:49:27;;;;;;;;;;;;;;;23.62;100.00;97315.22;5046651;28;20399;-71
2022/06/24 07:51:55;;;;;;;;;;;;;;;23.67;100.00;97318.81;5061588;28;19980;-71
2022/06/24 07:54:22;;;;;;;;;;;;;;;23.91;100.00;97318.44;5045040;28;20792;-71
2022/06/24 07:56:57;;;;;;;;;;;;;;;23.96;100.00;97308.03;5028513;28;19921;-70
2022/06/24 07:59:24;;;;;;;;;;;;;;;24.04;100.00;97323.38;5046458;28;20709;-71
2022/06/24 08:01:52;;;;;;;;;;;;;;;24.00;100.00;97321.72;5046100;28;19948;-71
2022/06/24 08:04:18;;;;;;;;;;;;;;;23.88;100.00;97314.53;5046238;28;19929;-71
2022/06/24 08:06:46;;;;;;;;;;;;;;;24.29;100.00;97310.16;5043068;28;19925;-71
2022/06/24 08:09:14;;;;;;;;;;;;;;;24.28;100.00;97324.94;5037626;28;19979;-72
2022/06/24 08:11:41;;;;;;;;;;;;;;;24.48;100.00;97320.19;5036652;28;20001;-72
2022/06/24 08:14:07;;;;;;;;;;;;;;;24.62;100.00;97321.19;5055757;28;19932;-72
2022/06/24 08:16:34;;;;;;;;;;;;;;;24.77;100.00;97316.69;5057879;28;20002;-71
2022/06/24 08:19:00;;;;;;;;;;;;;;;24.61;100.00;97313.34;5056913;28;19924;-71
2022/06/24 08:21:27;;;;;;;;;;;;;;;24.21;100.00;97321.31;5058373;28;19955;-71
2022/06/24 08:23:53;;;;;;;;;;;;;;;24.43;100.00;97328.66;5057483;28;19946;-71
2022/06/24 08:26:21;;;;;;;;;;;;;;;24.32;100.00;97323.06;5054039;28;19976;-72
2022/06/24 08:28:47;;;;;;;;;;;;;;;24.51;100.00;97325.69;5054199;28;20016;-71
2022/06/24 08:31:14;;;;;;;;;;;;;;;24.78;100.00;97322.94;5056449;28;20019;-71
2022/06/24 08:33:40;;;;;;;;;;;;;;;24.20;100.00;97331.44;5057514;28;19946;-72
2022/06/24 08:36:07;;;;;;;;;;;;;;;24.20;100.00;97334.19;5055609;28;20288;-71
2022/06/24 08:38:33;;;;;;;;;;;;;;;24.26;100.00;97335.44;5036795;28;19960;-76
2022/06/24 08:41:00;;;;;;;;;;;;;;;24.40;100.00;97326.69;5054994;28;19960;-75
2022/06/24 08:43:30;;;;;;;;;;;;;;;24.15;100.00;97329.81;5039764;28;19971;-71
2022/06/24 08:45:57;;;;;;;;;;;;;;;24.28;100.00;97324.16;5057475;28;19924;-71
2022/06/24 08:48:24;;;;;;;;;;;;;;;24.21;100.00;97315.84;5053857;28;19925;-71
2022/06/24 08:50:51;;;;;;;;;;;;;;;24.22;100.00;97315.50;5060293;28;20516;-71
2022/06/24 08:53:18;;;;;;;;;;;;;;;24.31;100.00;97298.84;5057187;28;19924;-70
2022/06/24 08:55:48;;;;;;;;;;;;;;;24.39;100.00;97300.53;5039188;28;19925;-71
2022/06/24 08:58:15;;;;;;;;;;;;;;;24.21;100.00;97308.44;5036592;28;19948;-71
2022/06/24 09:00:43;;;;;;;;;;;;;;;24.37;100.00;97308.31;5053495;28;20186;-71
2022/06/24 09:03:09;;;;;;;;;;;;;;;24.68;100.00;97322.44;5055247;28;19925;-70
2022/06/24 09:05:36;;;;;;;;;;;;;;;24.89;100.00;97319.22;5056759;28;19955;-70
2022/06/24 09:08:04;;;;;;;;;;;;;;;24.77;100.00;97315.91;5038873;28;19978;-70
2022/06/24 09:10:31;;;;;;;;;;;;;;;24.76;100.00;97322.53;5054258;28;19932;-71
2022/06/24 09:12:57;;;;;;;;;;;;;;;24.76;100.00;97328.75;5053249;28;19937;-71
2022/06/24 09:15:24;;;;;;;;;;;;;;;24.55;100.00;97325.72;5057968;28;20023;-71
2022/06/24 09:17:52;;;;;;;;;;;;;;;24.79;100.00;97324.53;5057334;28;19935;-72
2022/06/24 09:20:21;;;;;;;;;;;;;;;25.01;100.00;97320.94;5055615;28;19977;-71
2022/06/24 09:22:47;;;;;;;;;;;;;;;24.83;100.00;97308.97;5058165;28;19952;-71
2022/06/24 09:25:14;;;;;;;;;;;;;;;24.80;100.00;97310.50;5054846;28;19949;-71
2022/06/24 09:27:43;;;;;;;;;;;;;;;24.76;100.00;97309.66;5056703;28;19931;-71
2022/06/24 09:30:10;;;;;;;;;;;;;;;24.98;100.00;97299.81;5054905;28;19962;-71
2022/06/24 09:32:48;;;;;;;;;;;;;;;24.54;100.00;97299.59;5035533;28;19925;-71
2022/06/24 09:35:16;;;;;;;;;;;;;;;24.85;100.00;97306.69;5055955;28;19936;-71
2022/06/24 09:37:43;;;;;;;;;;;;;;;24.93;100.00;97303.69;5056960;28;20035;-71
2022/06/24 09:40:21;;;;;;;;;;;;;;;24.80;100.00;97298.78;5056390;28;19951;-71
2022/06/24 09:42:57;;;;;;;;;;;;;;;24.75;100.00;97301.84;5058748;28;19921;-71
2022/06/24 09:45:24;;;;;;;;;;;;;;;24.55;100.00;97299.22;5039975;28;19987;-71
2022/06/24 09:47:53;;;;;;;;;;;;;;;24.42;100.00;97297.84;5053947;28;19971;-71
2022/06/24 09:50:21;;;;;;;;;;;;;;;24.61;100.00;97303.22;5057033;28;19950;-71
2022/06/24 09:52:49;;;;;;;;;;;;;;;24.63;100.00;97309.06;5040144;28;20713;-71
2022/06/24 09:55:16;;;;;;;;;;;;;;;24.86;100.00;97317.22;5055859;28;19971;-71
2022/06/24 09:57:43;;;;;;;;;;;;;;;24.50;100.00;97317.88;5057123;28;19925;-72
2022/06/24 10:02:55;;;;;;;;;;;;;;;24.59;100.00;97332.84;5053419;28;19953;-71
2022/06/24 10:05:26;;;;;;;;;;;;;;;24.38;100.00;97335.25;5045552;28;19925;-71
2022/06/24 10:07:53;;;;;;;;;;;;;;;24.49;100.00;97327.19;5044825;28;20441;-71
2022/06/24 10:10:19;;;;;;;;;;;;;;;24.51;100.00;97316.72;5027255;28;19925;-72
2022/06/24 10:12:55;;;;;;;;;;;;;;;24.44;100.00;97301.03;5035364;28;19929;-70
2022/06/24 10:15:21;;;;;;;;;;;;;;;24.60;100.00;97312.53;5053004;28;19992;-71
2022/06/24 10:17:48;;;;;;;;;;;;;;;24.65;100.00;97309.53;5053058;28;19925;-71
2022/06/24 10:20:16;;;;;;;;;;;;;;;24.47;100.00;97322.13;5054508;28;20561;-72
2022/06/24 10:22:44;;;;;;;;;;;;;;;24.37;100.00;97317.28;5058838;28;19983;-71
2022/06/24 10:25:11;;;;;;;;;;;;;;;24.26;100.00;97318.28;5055347;28;19933;-72
2022/06/24 10:27:53;;;;;;;;;;;;;;;24.12;100.00;97311.44;5056596;28;19936;-73
2022/06/24 10:30:35;;;;;;;;;;;;;;;24.02;100.00;97325.66;5053115;28;19929;-73
2022/06/24 10:33:20;;;;;;;;;;;;;;;24.18;100.00;97336.47;5057248;28;19929;-72
2022/06/24 10:35:56;;;;;;;;;;;;;;;24.10;100.00;97338.28;5060096;28;19931;-72
2022/06/24 10:38:24;;;;;;;;;;;;;;;24.16;100.00;97345.03;5031372;28;20000;-72
2022/06/24 10:40:52;;;;;;;;;;;;;;;24.10;100.00;97332.03;5048008;28;19947;-72
2022/06/24 10:43:33;;;;;;;;;;;;;;;24.01;100.00;97343.19;5048040;28;19925;-72
2022/06/24 10:46:09;;;;;;;;;;;;;;;24.34;100.00;97341.78;5048220;28;19960;-71
2022/06/24 10:48:47;;;;;;;;;;;;;;;23.95;100.00;97330.97;5049143;28;19925;-71
2022/06/24 10:51:14;;;;;;;;;;;;;;;23.37;100.00;97333.00;5058384;28;20000;-71
2022/06/24 10:53:55;;;;;;;;;;;;;;;23.43;100.00;97325.34;5060718;28;19932;-71
2022/06/24 10:56:36;;;;;;;;;;;;;;;23.70;100.00;97326.25;5048718;28;19928;-71
2022/06/24 10:59:02;;;;;;;;;;;;;;;23.65;100.00;97325.41;5048288;28;19925;-70
2022/06/24 11:01:29;;;;;;;;;;;;;;;23.87;100.00;97320.31;5048219;28;19925;-71
2022/06/24 11:03:56;;;;;;;;;;;;;;;24.09;100.00;97328.50;5038622;28;19925;-71
2022/06/24 11:06:22;;;;;;;;;;;;;;;24.11;100.00;97328.16;5056467;28;19925;-71
2022/06/24 11:08:49;;;;;;;;;;;;;;;24.16;100.00;97325.16;5056190;28;19959;-71
2022/06/24 11:11:27;;;;;;;;;;;;;;;24.39;100.00;97314.97;5057683;28;19925;-70
2022/06/24 11:13:54;;;;;;;;;;;;;;;24.37;100.00;97300.91;5059591;28;19921;-70
2022/06/24 11:16:21;;;;;;;;;;;;;;;24.09;100.00;97293.03;5048254;28;19925;-73
2022/06/24 11:18:50;;;;;;;;;;;;;;;23.55;100.00;97287.81;5048939;28;20307;-73
2022/06/24 11:21:18;;;;;;;;;;;;;;;23.32;100.00;97287.00;5063555;28;19935;-72
2022/06/24 11:23:46;;;;;;;;;;;;;;;23.71;100.00;97285.00;5062306;28;19924;-72
2022/06/24 11:26:14;;;;;;;;;;;;;;;24.01;100.00;97288.66;5058440;28;19951;-75
2022/06/24 11:28:41;;;;;;;;;;;;;;;24.09;100.00;97308.63;5056770;28;20631;-71
2022/06/24 11:31:16;;;;;;;;;;;;;;;24.18;100.00;97301.00;5056355;28;19937;-72
2022/06/24 11:33:43;;;;;;;;;;;;;;;24.17;100.00;97286.56;5059278;28;19925;-70
2022/06/24 11:36:10;;;;;;;;;;;;;;;24.11;100.00;97274.38;5056993;28;20011;-71
2022/06/24 11:38:48;;;;;;;;;;;;;;;23.99;100.00;97276.50;5055672;28;19925;-71
2022/06/24 11:41:21;;;;;;;;;;;;;;;24.06;100.00;97265.72;5057281;28;19964;-70
2022/06/24 11:43:49;;;;;;;;;;;;;;;24.15;100.00;97263.53;5058876;28;19925;-71
2022/06/24 11:46:17;;;;;;;;;;;;;;;24.05;100.00;97269.56;5055671;28;19947;-71
2022/06/24 11:48:43;;;;;;;;;;;;;;;24.01;100.00;97266.03;5055331;28;19921;-71
2022/06/24 11:51:17;;;;;;;;;;;;;;;23.93;100.00;97258.88;5064132;28;19925;-71
2022/06/24 11:53:54;;;;;;;;;;;;;;;23.75;100.00;97247.69;5058485;28;19947;-70
2022/06/24 11:56:21;;;;;;;;;;;;;;;23.90;100.00;97248.69;5047574;28;19925;-71
2022/06/24 11:58:48;;;;;;;;;;;;;;;24.07;100.00;97237.28;5037433;28;19925;-71
2022/06/24 12:01:14;;;;;;;;;;;;;;;24.14;100.00;97240.13;5044571;28;19955;-72
2022/06/24 12:03:43;;;;;;;;;;;;;;;24.18;100.00;97236.31;5044687;28;19925;-71
2022/06/24 12:06:10;;;;;;;;;;;;;;;24.30;100.00;97235.31;5054366;28;19924;-71
2022/06/24 12:08:37;;;;;;;;;;;;;;;24.25;100.00;97216.53;5054178;28;19976;-72
2022/06/24 12:11:13;;;;;;;;;;;;;;;24.11;100.00;97208.91;5037594;28;19947;-70
2022/06/24 12:13:39;;;;;;;;;;;;;;;24.00;100.00;97204.44;5040339;28;19925;-71
2022/06/24 12:16:06;;;;;;;;;;;;;;;24.00;100.00;97215.34;5056374;28;19925;-71
2022/06/24 12:18:32;;;;;;;;;;;;;;;23.90;100.00;97202.34;5054194;28;19925;-72
2022/06/24 12:21:01;;;;;;;;;;;;;;;24.02;100.00;97193.94;5061660;28;19935;-71
2022/06/24 12:23:32;;;;;;;;;;;;;;;24.12;100.00;97194.13;5057834;28;19925;-71
2022/06/24 12:25:59;;;;;;;;;;;;;;;24.06;100.00;97190.13;5039400;28;19929;-71
2022/06/24 12:28:27;;;;;;;;;;;;;;;23.97;100.00;97186.88;5054258;28;19925;-71
2022/06/24 12:30:57;;;;;;;;;;;;;;;24.01;100.00;97181.47;5054471;28;20012;-71
2022/06/24 12:33:25;;;;;;;;;;;;;;;24.00;100.00;97186.13;5054316;28;19921;-70
2022/06/24 12:36:04;;;;;;;;;;;;;;;24.18;100.00;97197.31;5054242;28;19925;-71
2022/06/24 12:38:30;;;;;;;;;;;;;;;24.16;99.85;97211.34;5046176;28;20567;-71
2022/06/24 12:41:05;;;;;;;;;;;;;;;24.15;100.00;97220.69;5046063;28;19979;-71
2022/06/24 12:43:32;;;;;;;;;;;;;;;24.31;100.00;97219.72;5046447;28;19925;-73
2022/06/24 12:45:58;;;;;;;;;;;;;;;24.50;100.00;97220.41;5046451;28;19921;-72
2022/06/24 12:51:13;;;;;;;;;;;;;;;24.54;100.00;97237.59;5052266;28;19935;-71
2022/06/24 12:53:39;;;;;;;;;;;;;;;24.70;100.00;97224.53;5051432;28;19956;-72